<?xml version="1.0" encoding="UTF-8" standalone="no" ?>
<gpx xmlns="http://www.topografix.com/GPX/1/1" xmlns:xsi="http://www.w3.org/2001/XMLSchema-instance" xsi:schemaLocation="http://www.topografix.com/GPX/1/1 http://www.topografix.com/GPX/1/1/gpx.xsd" version="1.1" creator="VisuGPX - https://www.visugpx.com">
  <metadata>
    <name>Ville Au Denis</name>
    <desc><![CDATA[1er sortie Test Ville Au Denis]]></desc>
  </metadata>
  <trk>
    <name><![CDATA[2015-08-04 19:53]]></name>
    <desc><![CDATA[<h1>OruxMaps</h1><br /><hr align="center" width="480" style="height: 2px; width: 517px"/><h2>Nom: 2015-08-04 19:53</h2><br /><p>Temps de départ: 08/04/2015 19:53</p><p>Temps d'arrivée: 08/04/2015 20:28</p><p>Distance: 6,5km (00:35)</p><p>Temps déplacement: 00:33</p><p>Vitesse moyenne: 11,1km/h</p><p>Vitesse moyenne: 11,7km/h</p><p>Vitess Max.: 18,8km/h</p><p>Altitude minimale: 4m</p><p>Altitude maximale: 38m</p><p>Vitesse d'élévation: 509,3m/h</p><p>Vitesse de descente: -537,1m/h</p><p>Gain Altitude: 104m</p><p>Perte Altitude: -110m</p><p>Temps d'élévation: 00:12</p><p>Temps de descente: 00:12</p><hr align="center" width="480" style="height: 2px; width: 517px"/>]]></desc>
    <trkseg>
      <trkpt lat="47.16852" lon="-1.62587">
        <ele>28.8</ele>
        <time>2015-08-04T17:53:44Z</time>
      </trkpt>
      <trkpt lat="47.16829" lon="-1.62609">
        <ele>28.8</ele>
        <time>2015-08-04T17:53:47Z</time>
      </trkpt>
      <trkpt lat="47.16813" lon="-1.62625">
        <ele>28.8</ele>
        <time>2015-08-04T17:53:55Z</time>
      </trkpt>
      <trkpt lat="47.1681" lon="-1.62657">
        <ele>28.8</ele>
        <time>2015-08-04T17:54:39Z</time>
      </trkpt>
      <trkpt lat="47.16801" lon="-1.6269">
        <ele>28.9</ele>
        <time>2015-08-04T17:54:41Z</time>
      </trkpt>
      <trkpt lat="47.16794" lon="-1.62716">
        <ele>28.9</ele>
        <time>2015-08-04T17:54:44Z</time>
      </trkpt>
      <trkpt lat="47.16783" lon="-1.62737">
        <ele>28.9</ele>
        <time>2015-08-04T17:54:48Z</time>
      </trkpt>
      <trkpt lat="47.16774" lon="-1.6276">
        <ele>28.9</ele>
        <time>2015-08-04T17:54:55Z</time>
      </trkpt>
      <trkpt lat="47.16757" lon="-1.62749">
        <ele>28.8</ele>
        <time>2015-08-04T17:55:03Z</time>
      </trkpt>
      <trkpt lat="47.16746" lon="-1.62725">
        <ele>28.8</ele>
        <time>2015-08-04T17:55:07Z</time>
      </trkpt>
      <trkpt lat="47.16735" lon="-1.62696">
        <ele>28.8</ele>
        <time>2015-08-04T17:55:12Z</time>
      </trkpt>
      <trkpt lat="47.16727" lon="-1.62672">
        <ele>28.8</ele>
        <time>2015-08-04T17:55:16Z</time>
      </trkpt>
      <trkpt lat="47.16718" lon="-1.62645">
        <ele>28.8</ele>
        <time>2015-08-04T17:55:20Z</time>
      </trkpt>
      <trkpt lat="47.16714" lon="-1.62619">
        <ele>28.8</ele>
        <time>2015-08-04T17:55:24Z</time>
      </trkpt>
      <trkpt lat="47.16712" lon="-1.62588">
        <ele>28.7</ele>
        <time>2015-08-04T17:55:29Z</time>
      </trkpt>
      <trkpt lat="47.16715" lon="-1.62557">
        <ele>28.7</ele>
        <time>2015-08-04T17:55:34Z</time>
      </trkpt>
      <trkpt lat="47.16719" lon="-1.62529">
        <ele>28.7</ele>
        <time>2015-08-04T17:55:39Z</time>
      </trkpt>
      <trkpt lat="47.16723" lon="-1.62499">
        <ele>28.7</ele>
        <time>2015-08-04T17:55:45Z</time>
      </trkpt>
      <trkpt lat="47.16732" lon="-1.62473">
        <ele>28.8</ele>
        <time>2015-08-04T17:55:50Z</time>
      </trkpt>
      <trkpt lat="47.16733" lon="-1.62447">
        <ele>28.9</ele>
        <time>2015-08-04T17:55:57Z</time>
      </trkpt>
      <trkpt lat="47.16721" lon="-1.62425">
        <ele>29.1</ele>
        <time>2015-08-04T17:56:03Z</time>
      </trkpt>
      <trkpt lat="47.16728" lon="-1.62401">
        <ele>29.3</ele>
        <time>2015-08-04T17:56:09Z</time>
      </trkpt>
      <trkpt lat="47.16727" lon="-1.62374">
        <ele>29.6</ele>
        <time>2015-08-04T17:56:17Z</time>
      </trkpt>
      <trkpt lat="47.16711" lon="-1.62359">
        <ele>29.9</ele>
        <time>2015-08-04T17:56:24Z</time>
      </trkpt>
      <trkpt lat="47.16691" lon="-1.62363">
        <ele>30.3</ele>
        <time>2015-08-04T17:56:34Z</time>
      </trkpt>
      <trkpt lat="47.16672" lon="-1.62377">
        <ele>30.5</ele>
        <time>2015-08-04T17:56:40Z</time>
      </trkpt>
      <trkpt lat="47.16656" lon="-1.62391">
        <ele>30.6</ele>
        <time>2015-08-04T17:56:44Z</time>
      </trkpt>
      <trkpt lat="47.16637" lon="-1.62406">
        <ele>30.8</ele>
        <time>2015-08-04T17:56:48Z</time>
      </trkpt>
      <trkpt lat="47.1662" lon="-1.62422">
        <ele>31</ele>
        <time>2015-08-04T17:56:52Z</time>
      </trkpt>
      <trkpt lat="47.16607" lon="-1.62446">
        <ele>31.4</ele>
        <time>2015-08-04T17:56:58Z</time>
      </trkpt>
      <trkpt lat="47.16594" lon="-1.62466">
        <ele>31.7</ele>
        <time>2015-08-04T17:57:04Z</time>
      </trkpt>
      <trkpt lat="47.16581" lon="-1.62484">
        <ele>32</ele>
        <time>2015-08-04T17:57:10Z</time>
      </trkpt>
      <trkpt lat="47.16571" lon="-1.62511">
        <ele>32.5</ele>
        <time>2015-08-04T17:57:17Z</time>
      </trkpt>
      <trkpt lat="47.16562" lon="-1.62535">
        <ele>32.9</ele>
        <time>2015-08-04T17:57:23Z</time>
      </trkpt>
      <trkpt lat="47.16547" lon="-1.62556">
        <ele>33.5</ele>
        <time>2015-08-04T17:57:30Z</time>
      </trkpt>
      <trkpt lat="47.16529" lon="-1.62563">
        <ele>34</ele>
        <time>2015-08-04T17:57:36Z</time>
      </trkpt>
      <trkpt lat="47.1651" lon="-1.62559">
        <ele>34.2</ele>
        <time>2015-08-04T17:57:42Z</time>
      </trkpt>
      <trkpt lat="47.16489" lon="-1.6255">
        <ele>33.4</ele>
        <time>2015-08-04T17:57:48Z</time>
      </trkpt>
      <trkpt lat="47.16469" lon="-1.62546">
        <ele>32.7</ele>
        <time>2015-08-04T17:57:54Z</time>
      </trkpt>
      <trkpt lat="47.16448" lon="-1.62542">
        <ele>32</ele>
        <time>2015-08-04T17:58:01Z</time>
      </trkpt>
      <trkpt lat="47.16429" lon="-1.62546">
        <ele>30.9</ele>
        <time>2015-08-04T17:58:07Z</time>
      </trkpt>
      <trkpt lat="47.16412" lon="-1.62563">
        <ele>29.4</ele>
        <time>2015-08-04T17:58:13Z</time>
      </trkpt>
      <trkpt lat="47.16393" lon="-1.62578">
        <ele>29</ele>
        <time>2015-08-04T17:58:19Z</time>
      </trkpt>
      <trkpt lat="47.16375" lon="-1.62588">
        <ele>28.9</ele>
        <time>2015-08-04T17:58:25Z</time>
      </trkpt>
      <trkpt lat="47.16355" lon="-1.62585">
        <ele>29</ele>
        <time>2015-08-04T17:58:31Z</time>
      </trkpt>
      <trkpt lat="47.16336" lon="-1.62576">
        <ele>28.5</ele>
        <time>2015-08-04T17:58:37Z</time>
      </trkpt>
      <trkpt lat="47.16317" lon="-1.62567">
        <ele>28.6</ele>
        <time>2015-08-04T17:58:44Z</time>
      </trkpt>
      <trkpt lat="47.16298" lon="-1.62575">
        <ele>29</ele>
        <time>2015-08-04T17:58:50Z</time>
      </trkpt>
      <trkpt lat="47.16289" lon="-1.62603">
        <ele>29.5</ele>
        <time>2015-08-04T17:58:57Z</time>
      </trkpt>
      <trkpt lat="47.16287" lon="-1.6263">
        <ele>29.9</ele>
        <time>2015-08-04T17:59:02Z</time>
      </trkpt>
      <trkpt lat="47.16285" lon="-1.62659">
        <ele>30.6</ele>
        <time>2015-08-04T17:59:08Z</time>
      </trkpt>
      <trkpt lat="47.16281" lon="-1.62688">
        <ele>31.1</ele>
        <time>2015-08-04T17:59:15Z</time>
      </trkpt>
      <trkpt lat="47.16266" lon="-1.62704">
        <ele>31.8</ele>
        <time>2015-08-04T17:59:21Z</time>
      </trkpt>
      <trkpt lat="47.16249" lon="-1.62717">
        <ele>32</ele>
        <time>2015-08-04T17:59:27Z</time>
      </trkpt>
      <trkpt lat="47.16231" lon="-1.62731">
        <ele>31.8</ele>
        <time>2015-08-04T17:59:33Z</time>
      </trkpt>
      <trkpt lat="47.16215" lon="-1.62745">
        <ele>31.5</ele>
        <time>2015-08-04T17:59:39Z</time>
      </trkpt>
      <trkpt lat="47.16198" lon="-1.62761">
        <ele>31</ele>
        <time>2015-08-04T17:59:45Z</time>
      </trkpt>
      <trkpt lat="47.1618" lon="-1.62774">
        <ele>30.3</ele>
        <time>2015-08-04T17:59:51Z</time>
      </trkpt>
      <trkpt lat="47.16163" lon="-1.6279">
        <ele>29.6</ele>
        <time>2015-08-04T17:59:57Z</time>
      </trkpt>
      <trkpt lat="47.16146" lon="-1.62805">
        <ele>28.9</ele>
        <time>2015-08-04T18:00:03Z</time>
      </trkpt>
      <trkpt lat="47.16132" lon="-1.62822">
        <ele>28.4</ele>
        <time>2015-08-04T18:00:09Z</time>
      </trkpt>
      <trkpt lat="47.16116" lon="-1.62839">
        <ele>28.5</ele>
        <time>2015-08-04T18:00:15Z</time>
      </trkpt>
      <trkpt lat="47.16097" lon="-1.62853">
        <ele>28.2</ele>
        <time>2015-08-04T18:00:22Z</time>
      </trkpt>
      <trkpt lat="47.16078" lon="-1.62864">
        <ele>27.9</ele>
        <time>2015-08-04T18:00:28Z</time>
      </trkpt>
      <trkpt lat="47.16062" lon="-1.62881">
        <ele>27.1</ele>
        <time>2015-08-04T18:00:34Z</time>
      </trkpt>
      <trkpt lat="47.16043" lon="-1.62893">
        <ele>26.5</ele>
        <time>2015-08-04T18:00:41Z</time>
      </trkpt>
      <trkpt lat="47.16027" lon="-1.62906">
        <ele>25.9</ele>
        <time>2015-08-04T18:00:47Z</time>
      </trkpt>
      <trkpt lat="47.16009" lon="-1.62926">
        <ele>25.3</ele>
        <time>2015-08-04T18:00:53Z</time>
      </trkpt>
      <trkpt lat="47.15991" lon="-1.62941">
        <ele>24.8</ele>
        <time>2015-08-04T18:00:59Z</time>
      </trkpt>
      <trkpt lat="47.15976" lon="-1.62959">
        <ele>24.5</ele>
        <time>2015-08-04T18:01:05Z</time>
      </trkpt>
      <trkpt lat="47.15959" lon="-1.62971">
        <ele>23.7</ele>
        <time>2015-08-04T18:01:11Z</time>
      </trkpt>
      <trkpt lat="47.15943" lon="-1.62984">
        <ele>23.4</ele>
        <time>2015-08-04T18:01:17Z</time>
      </trkpt>
      <trkpt lat="47.15927" lon="-1.62997">
        <ele>23.1</ele>
        <time>2015-08-04T18:01:23Z</time>
      </trkpt>
      <trkpt lat="47.15908" lon="-1.63012">
        <ele>23.1</ele>
        <time>2015-08-04T18:01:30Z</time>
      </trkpt>
      <trkpt lat="47.15893" lon="-1.63027">
        <ele>22.8</ele>
        <time>2015-08-04T18:01:36Z</time>
      </trkpt>
      <trkpt lat="47.15875" lon="-1.63039">
        <ele>21.4</ele>
        <time>2015-08-04T18:01:42Z</time>
      </trkpt>
      <trkpt lat="47.15858" lon="-1.63054">
        <ele>20.6</ele>
        <time>2015-08-04T18:01:49Z</time>
      </trkpt>
      <trkpt lat="47.15841" lon="-1.63068">
        <ele>19.1</ele>
        <time>2015-08-04T18:01:56Z</time>
      </trkpt>
      <trkpt lat="47.15825" lon="-1.63087">
        <ele>18</ele>
        <time>2015-08-04T18:02:03Z</time>
      </trkpt>
      <trkpt lat="47.15811" lon="-1.63104">
        <ele>17.8</ele>
        <time>2015-08-04T18:02:10Z</time>
      </trkpt>
      <trkpt lat="47.15795" lon="-1.63117">
        <ele>18.2</ele>
        <time>2015-08-04T18:02:17Z</time>
      </trkpt>
      <trkpt lat="47.15778" lon="-1.6313">
        <ele>17.9</ele>
        <time>2015-08-04T18:02:23Z</time>
      </trkpt>
      <trkpt lat="47.15761" lon="-1.63142">
        <ele>17.3</ele>
        <time>2015-08-04T18:02:29Z</time>
      </trkpt>
      <trkpt lat="47.15743" lon="-1.63153">
        <ele>16.8</ele>
        <time>2015-08-04T18:02:35Z</time>
      </trkpt>
      <trkpt lat="47.15727" lon="-1.63168">
        <ele>17</ele>
        <time>2015-08-04T18:02:41Z</time>
      </trkpt>
      <trkpt lat="47.15712" lon="-1.63186">
        <ele>16.7</ele>
        <time>2015-08-04T18:02:48Z</time>
      </trkpt>
      <trkpt lat="47.15697" lon="-1.63202">
        <ele>16.2</ele>
        <time>2015-08-04T18:02:55Z</time>
      </trkpt>
      <trkpt lat="47.15681" lon="-1.63216">
        <ele>16.1</ele>
        <time>2015-08-04T18:03:01Z</time>
      </trkpt>
      <trkpt lat="47.15665" lon="-1.63231">
        <ele>16.3</ele>
        <time>2015-08-04T18:03:08Z</time>
      </trkpt>
      <trkpt lat="47.15648" lon="-1.63247">
        <ele>16.3</ele>
        <time>2015-08-04T18:03:14Z</time>
      </trkpt>
      <trkpt lat="47.15631" lon="-1.63261">
        <ele>15.6</ele>
        <time>2015-08-04T18:03:20Z</time>
      </trkpt>
      <trkpt lat="47.15614" lon="-1.63276">
        <ele>15.1</ele>
        <time>2015-08-04T18:03:26Z</time>
      </trkpt>
      <trkpt lat="47.15597" lon="-1.6329">
        <ele>14.2</ele>
        <time>2015-08-04T18:03:33Z</time>
      </trkpt>
      <trkpt lat="47.15581" lon="-1.63304">
        <ele>13.3</ele>
        <time>2015-08-04T18:03:40Z</time>
      </trkpt>
      <trkpt lat="47.15565" lon="-1.63318">
        <ele>13.1</ele>
        <time>2015-08-04T18:03:47Z</time>
      </trkpt>
      <trkpt lat="47.15546" lon="-1.63326">
        <ele>13</ele>
        <time>2015-08-04T18:03:55Z</time>
      </trkpt>
      <trkpt lat="47.15528" lon="-1.63336">
        <ele>12.9</ele>
        <time>2015-08-04T18:04:02Z</time>
      </trkpt>
      <trkpt lat="47.15511" lon="-1.63351">
        <ele>14.3</ele>
        <time>2015-08-04T18:04:10Z</time>
      </trkpt>
      <trkpt lat="47.15493" lon="-1.63366">
        <ele>16</ele>
        <time>2015-08-04T18:04:17Z</time>
      </trkpt>
      <trkpt lat="47.15477" lon="-1.63381">
        <ele>18.7</ele>
        <time>2015-08-04T18:04:24Z</time>
      </trkpt>
      <trkpt lat="47.15459" lon="-1.63395">
        <ele>21.4</ele>
        <time>2015-08-04T18:04:31Z</time>
      </trkpt>
      <trkpt lat="47.15444" lon="-1.63412">
        <ele>22.9</ele>
        <time>2015-08-04T18:04:38Z</time>
      </trkpt>
      <trkpt lat="47.15429" lon="-1.63428">
        <ele>24.7</ele>
        <time>2015-08-04T18:04:45Z</time>
      </trkpt>
      <trkpt lat="47.15413" lon="-1.6344">
        <ele>26</ele>
        <time>2015-08-04T18:04:51Z</time>
      </trkpt>
      <trkpt lat="47.15397" lon="-1.63456">
        <ele>27</ele>
        <time>2015-08-04T18:04:58Z</time>
      </trkpt>
      <trkpt lat="47.15381" lon="-1.63473">
        <ele>27.7</ele>
        <time>2015-08-04T18:05:05Z</time>
      </trkpt>
      <trkpt lat="47.15363" lon="-1.63485">
        <ele>28.9</ele>
        <time>2015-08-04T18:05:11Z</time>
      </trkpt>
      <trkpt lat="47.15345" lon="-1.63501">
        <ele>30</ele>
        <time>2015-08-04T18:05:18Z</time>
      </trkpt>
      <trkpt lat="47.15328" lon="-1.63516">
        <ele>29.9</ele>
        <time>2015-08-04T18:05:25Z</time>
      </trkpt>
      <trkpt lat="47.15311" lon="-1.63532">
        <ele>29.9</ele>
        <time>2015-08-04T18:05:32Z</time>
      </trkpt>
      <trkpt lat="47.15296" lon="-1.63549">
        <ele>30.9</ele>
        <time>2015-08-04T18:05:39Z</time>
      </trkpt>
      <trkpt lat="47.15279" lon="-1.63566">
        <ele>31.6</ele>
        <time>2015-08-04T18:05:46Z</time>
      </trkpt>
      <trkpt lat="47.15262" lon="-1.63583">
        <ele>31.4</ele>
        <time>2015-08-04T18:05:53Z</time>
      </trkpt>
      <trkpt lat="47.15245" lon="-1.63594">
        <ele>30.9</ele>
        <time>2015-08-04T18:05:59Z</time>
      </trkpt>
      <trkpt lat="47.1523" lon="-1.6361">
        <ele>31.7</ele>
        <time>2015-08-04T18:06:06Z</time>
      </trkpt>
      <trkpt lat="47.15215" lon="-1.63624">
        <ele>31.4</ele>
        <time>2015-08-04T18:06:12Z</time>
      </trkpt>
      <trkpt lat="47.15198" lon="-1.6364">
        <ele>30.3</ele>
        <time>2015-08-04T18:06:19Z</time>
      </trkpt>
      <trkpt lat="47.15182" lon="-1.63657">
        <ele>28.5</ele>
        <time>2015-08-04T18:06:26Z</time>
      </trkpt>
      <trkpt lat="47.15163" lon="-1.63671">
        <ele>25.6</ele>
        <time>2015-08-04T18:06:33Z</time>
      </trkpt>
      <trkpt lat="47.15146" lon="-1.63684">
        <ele>24.7</ele>
        <time>2015-08-04T18:06:40Z</time>
      </trkpt>
      <trkpt lat="47.15129" lon="-1.637">
        <ele>23</ele>
        <time>2015-08-04T18:06:47Z</time>
      </trkpt>
      <trkpt lat="47.15113" lon="-1.63714">
        <ele>21.5</ele>
        <time>2015-08-04T18:06:53Z</time>
      </trkpt>
      <trkpt lat="47.15096" lon="-1.63731">
        <ele>20.4</ele>
        <time>2015-08-04T18:07:00Z</time>
      </trkpt>
      <trkpt lat="47.15083" lon="-1.63753">
        <ele>18.7</ele>
        <time>2015-08-04T18:07:08Z</time>
      </trkpt>
      <trkpt lat="47.15067" lon="-1.63768">
        <ele>18.1</ele>
        <time>2015-08-04T18:07:14Z</time>
      </trkpt>
      <trkpt lat="47.15052" lon="-1.63789">
        <ele>18.2</ele>
        <time>2015-08-04T18:07:21Z</time>
      </trkpt>
      <trkpt lat="47.15036" lon="-1.63806">
        <ele>21.1</ele>
        <time>2015-08-04T18:07:28Z</time>
      </trkpt>
      <trkpt lat="47.15022" lon="-1.63827">
        <ele>21.8</ele>
        <time>2015-08-04T18:07:35Z</time>
      </trkpt>
      <trkpt lat="47.15007" lon="-1.63847">
        <ele>22.4</ele>
        <time>2015-08-04T18:07:42Z</time>
      </trkpt>
      <trkpt lat="47.14993" lon="-1.63867">
        <ele>22.3</ele>
        <time>2015-08-04T18:07:49Z</time>
      </trkpt>
      <trkpt lat="47.14977" lon="-1.63881">
        <ele>22.5</ele>
        <time>2015-08-04T18:07:55Z</time>
      </trkpt>
      <trkpt lat="47.14964" lon="-1.63904">
        <ele>23.1</ele>
        <time>2015-08-04T18:08:02Z</time>
      </trkpt>
      <trkpt lat="47.14954" lon="-1.63927">
        <ele>24.3</ele>
        <time>2015-08-04T18:08:08Z</time>
      </trkpt>
      <trkpt lat="47.14942" lon="-1.63949">
        <ele>24.4</ele>
        <time>2015-08-04T18:08:15Z</time>
      </trkpt>
      <trkpt lat="47.14931" lon="-1.63974">
        <ele>24.7</ele>
        <time>2015-08-04T18:08:22Z</time>
      </trkpt>
      <trkpt lat="47.14918" lon="-1.63994">
        <ele>25.1</ele>
        <time>2015-08-04T18:08:29Z</time>
      </trkpt>
      <trkpt lat="47.14904" lon="-1.64015">
        <ele>25.5</ele>
        <time>2015-08-04T18:08:37Z</time>
      </trkpt>
      <trkpt lat="47.14885" lon="-1.64016">
        <ele>25.9</ele>
        <time>2015-08-04T18:08:45Z</time>
      </trkpt>
      <trkpt lat="47.14872" lon="-1.63994">
        <ele>25.5</ele>
        <time>2015-08-04T18:08:53Z</time>
      </trkpt>
      <trkpt lat="47.14865" lon="-1.63966">
        <ele>25.4</ele>
        <time>2015-08-04T18:09:01Z</time>
      </trkpt>
      <trkpt lat="47.14867" lon="-1.63937">
        <ele>25.4</ele>
        <time>2015-08-04T18:09:08Z</time>
      </trkpt>
      <trkpt lat="47.14872" lon="-1.6391">
        <ele>26.2</ele>
        <time>2015-08-04T18:09:15Z</time>
      </trkpt>
      <trkpt lat="47.14874" lon="-1.63882">
        <ele>26.9</ele>
        <time>2015-08-04T18:09:21Z</time>
      </trkpt>
      <trkpt lat="47.14876" lon="-1.63852">
        <ele>27.5</ele>
        <time>2015-08-04T18:09:28Z</time>
      </trkpt>
      <trkpt lat="47.14879" lon="-1.63825">
        <ele>28.4</ele>
        <time>2015-08-04T18:09:34Z</time>
      </trkpt>
      <trkpt lat="47.14879" lon="-1.63798">
        <ele>30</ele>
        <time>2015-08-04T18:09:40Z</time>
      </trkpt>
      <trkpt lat="47.14879" lon="-1.6377">
        <ele>30.3</ele>
        <time>2015-08-04T18:09:47Z</time>
      </trkpt>
      <trkpt lat="47.14881" lon="-1.63743">
        <ele>30.6</ele>
        <time>2015-08-04T18:09:54Z</time>
      </trkpt>
      <trkpt lat="47.14882" lon="-1.63715">
        <ele>29.8</ele>
        <time>2015-08-04T18:10:01Z</time>
      </trkpt>
      <trkpt lat="47.14881" lon="-1.63687">
        <ele>28.3</ele>
        <time>2015-08-04T18:10:08Z</time>
      </trkpt>
      <trkpt lat="47.14877" lon="-1.63657">
        <ele>26.5</ele>
        <time>2015-08-04T18:10:15Z</time>
      </trkpt>
      <trkpt lat="47.14876" lon="-1.63628">
        <ele>26.3</ele>
        <time>2015-08-04T18:10:22Z</time>
      </trkpt>
      <trkpt lat="47.14875" lon="-1.63599">
        <ele>24.7</ele>
        <time>2015-08-04T18:10:29Z</time>
      </trkpt>
      <trkpt lat="47.14876" lon="-1.63571">
        <ele>24.6</ele>
        <time>2015-08-04T18:10:36Z</time>
      </trkpt>
      <trkpt lat="47.14879" lon="-1.63543">
        <ele>24.5</ele>
        <time>2015-08-04T18:10:44Z</time>
      </trkpt>
      <trkpt lat="47.14878" lon="-1.63515">
        <ele>25.3</ele>
        <time>2015-08-04T18:10:50Z</time>
      </trkpt>
      <trkpt lat="47.14878" lon="-1.63488">
        <ele>25.7</ele>
        <time>2015-08-04T18:10:57Z</time>
      </trkpt>
      <trkpt lat="47.14879" lon="-1.63459">
        <ele>26.4</ele>
        <time>2015-08-04T18:11:04Z</time>
      </trkpt>
      <trkpt lat="47.14883" lon="-1.63432">
        <ele>27.3</ele>
        <time>2015-08-04T18:11:11Z</time>
      </trkpt>
      <trkpt lat="47.14884" lon="-1.63405">
        <ele>27.4</ele>
        <time>2015-08-04T18:11:18Z</time>
      </trkpt>
      <trkpt lat="47.14884" lon="-1.63379">
        <ele>26.9</ele>
        <time>2015-08-04T18:11:25Z</time>
      </trkpt>
      <trkpt lat="47.14884" lon="-1.63349">
        <ele>25.8</ele>
        <time>2015-08-04T18:11:33Z</time>
      </trkpt>
      <trkpt lat="47.14887" lon="-1.63322">
        <ele>26.4</ele>
        <time>2015-08-04T18:11:40Z</time>
      </trkpt>
      <trkpt lat="47.14886" lon="-1.63296">
        <ele>26</ele>
        <time>2015-08-04T18:11:47Z</time>
      </trkpt>
      <trkpt lat="47.14885" lon="-1.63269">
        <ele>25.9</ele>
        <time>2015-08-04T18:11:53Z</time>
      </trkpt>
      <trkpt lat="47.14884" lon="-1.63242">
        <ele>25.6</ele>
        <time>2015-08-04T18:11:59Z</time>
      </trkpt>
      <trkpt lat="47.14885" lon="-1.63215">
        <ele>25.4</ele>
        <time>2015-08-04T18:12:06Z</time>
      </trkpt>
      <trkpt lat="47.14904" lon="-1.63212">
        <ele>25.8</ele>
        <time>2015-08-04T18:12:21Z</time>
      </trkpt>
      <trkpt lat="47.14919" lon="-1.63233">
        <ele>25.8</ele>
        <time>2015-08-04T18:12:30Z</time>
      </trkpt>
      <trkpt lat="47.14934" lon="-1.63252">
        <ele>24.7</ele>
        <time>2015-08-04T18:12:37Z</time>
      </trkpt>
      <trkpt lat="47.14949" lon="-1.63271">
        <ele>22.5</ele>
        <time>2015-08-04T18:12:45Z</time>
      </trkpt>
      <trkpt lat="47.14965" lon="-1.63289">
        <ele>20.9</ele>
        <time>2015-08-04T18:12:54Z</time>
      </trkpt>
      <trkpt lat="47.14977" lon="-1.63309">
        <ele>19.2</ele>
        <time>2015-08-04T18:13:01Z</time>
      </trkpt>
      <trkpt lat="47.14992" lon="-1.63326">
        <ele>18.3</ele>
        <time>2015-08-04T18:13:09Z</time>
      </trkpt>
      <trkpt lat="47.15005" lon="-1.63346">
        <ele>17.2</ele>
        <time>2015-08-04T18:13:16Z</time>
      </trkpt>
      <trkpt lat="47.15017" lon="-1.63368">
        <ele>16.9</ele>
        <time>2015-08-04T18:13:23Z</time>
      </trkpt>
      <trkpt lat="47.15031" lon="-1.63388">
        <ele>16.8</ele>
        <time>2015-08-04T18:13:30Z</time>
      </trkpt>
      <trkpt lat="47.15044" lon="-1.63408">
        <ele>16.1</ele>
        <time>2015-08-04T18:13:37Z</time>
      </trkpt>
      <trkpt lat="47.15054" lon="-1.63433">
        <ele>15.7</ele>
        <time>2015-08-04T18:13:44Z</time>
      </trkpt>
      <trkpt lat="47.15066" lon="-1.63457">
        <ele>15.3</ele>
        <time>2015-08-04T18:13:52Z</time>
      </trkpt>
      <trkpt lat="47.1508" lon="-1.63479">
        <ele>15.1</ele>
        <time>2015-08-04T18:14:00Z</time>
      </trkpt>
      <trkpt lat="47.15091" lon="-1.63501">
        <ele>14.3</ele>
        <time>2015-08-04T18:14:06Z</time>
      </trkpt>
      <trkpt lat="47.15103" lon="-1.63522">
        <ele>13.2</ele>
        <time>2015-08-04T18:14:13Z</time>
      </trkpt>
      <trkpt lat="47.15115" lon="-1.63545">
        <ele>11.4</ele>
        <time>2015-08-04T18:14:22Z</time>
      </trkpt>
      <trkpt lat="47.15131" lon="-1.63559">
        <ele>9.7</ele>
        <time>2015-08-04T18:14:28Z</time>
      </trkpt>
      <trkpt lat="47.15147" lon="-1.63544">
        <ele>8.7</ele>
        <time>2015-08-04T18:14:35Z</time>
      </trkpt>
      <trkpt lat="47.15162" lon="-1.63528">
        <ele>9.7</ele>
        <time>2015-08-04T18:14:43Z</time>
      </trkpt>
      <trkpt lat="47.15177" lon="-1.63509">
        <ele>9.4</ele>
        <time>2015-08-04T18:14:50Z</time>
      </trkpt>
      <trkpt lat="47.15192" lon="-1.63491">
        <ele>10.7</ele>
        <time>2015-08-04T18:14:57Z</time>
      </trkpt>
      <trkpt lat="47.15209" lon="-1.63476">
        <ele>15.4</ele>
        <time>2015-08-04T18:15:06Z</time>
      </trkpt>
      <trkpt lat="47.15225" lon="-1.63462">
        <ele>18.3</ele>
        <time>2015-08-04T18:15:14Z</time>
      </trkpt>
      <trkpt lat="47.15241" lon="-1.63447">
        <ele>20.6</ele>
        <time>2015-08-04T18:15:21Z</time>
      </trkpt>
      <trkpt lat="47.15257" lon="-1.63432">
        <ele>22.5</ele>
        <time>2015-08-04T18:15:27Z</time>
      </trkpt>
      <trkpt lat="47.15273" lon="-1.63415">
        <ele>23.5</ele>
        <time>2015-08-04T18:15:34Z</time>
      </trkpt>
      <trkpt lat="47.15286" lon="-1.63394">
        <ele>24.3</ele>
        <time>2015-08-04T18:15:41Z</time>
      </trkpt>
      <trkpt lat="47.153" lon="-1.63375">
        <ele>25.1</ele>
        <time>2015-08-04T18:15:48Z</time>
      </trkpt>
      <trkpt lat="47.15316" lon="-1.63361">
        <ele>25.2</ele>
        <time>2015-08-04T18:15:55Z</time>
      </trkpt>
      <trkpt lat="47.1533" lon="-1.63343">
        <ele>24.8</ele>
        <time>2015-08-04T18:16:03Z</time>
      </trkpt>
      <trkpt lat="47.15347" lon="-1.63325">
        <ele>25.5</ele>
        <time>2015-08-04T18:16:11Z</time>
      </trkpt>
      <trkpt lat="47.15359" lon="-1.63302">
        <ele>26.4</ele>
        <time>2015-08-04T18:16:18Z</time>
      </trkpt>
      <trkpt lat="47.15376" lon="-1.63285">
        <ele>27.3</ele>
        <time>2015-08-04T18:16:26Z</time>
      </trkpt>
      <trkpt lat="47.1539" lon="-1.63266">
        <ele>26.2</ele>
        <time>2015-08-04T18:16:32Z</time>
      </trkpt>
      <trkpt lat="47.15402" lon="-1.63243">
        <ele>26.1</ele>
        <time>2015-08-04T18:16:39Z</time>
      </trkpt>
      <trkpt lat="47.15416" lon="-1.63224">
        <ele>26.5</ele>
        <time>2015-08-04T18:16:46Z</time>
      </trkpt>
      <trkpt lat="47.15431" lon="-1.63205">
        <ele>26.9</ele>
        <time>2015-08-04T18:16:52Z</time>
      </trkpt>
      <trkpt lat="47.1544" lon="-1.63181">
        <ele>27.4</ele>
        <time>2015-08-04T18:16:58Z</time>
      </trkpt>
      <trkpt lat="47.15452" lon="-1.63161">
        <ele>27.8</ele>
        <time>2015-08-04T18:17:08Z</time>
      </trkpt>
      <trkpt lat="47.15466" lon="-1.63142">
        <ele>27.2</ele>
        <time>2015-08-04T18:17:13Z</time>
      </trkpt>
      <trkpt lat="47.15481" lon="-1.63124">
        <ele>27.2</ele>
        <time>2015-08-04T18:17:19Z</time>
      </trkpt>
      <trkpt lat="47.15495" lon="-1.63105">
        <ele>27.5</ele>
        <time>2015-08-04T18:17:26Z</time>
      </trkpt>
      <trkpt lat="47.15509" lon="-1.63086">
        <ele>28.1</ele>
        <time>2015-08-04T18:17:34Z</time>
      </trkpt>
      <trkpt lat="47.15522" lon="-1.63064">
        <ele>28.8</ele>
        <time>2015-08-04T18:17:42Z</time>
      </trkpt>
      <trkpt lat="47.15536" lon="-1.63044">
        <ele>29.6</ele>
        <time>2015-08-04T18:17:48Z</time>
      </trkpt>
      <trkpt lat="47.15549" lon="-1.63025">
        <ele>30</ele>
        <time>2015-08-04T18:17:55Z</time>
      </trkpt>
      <trkpt lat="47.15565" lon="-1.63005">
        <ele>30.8</ele>
        <time>2015-08-04T18:18:03Z</time>
      </trkpt>
      <trkpt lat="47.1558" lon="-1.6299">
        <ele>31.5</ele>
        <time>2015-08-04T18:18:10Z</time>
      </trkpt>
      <trkpt lat="47.15595" lon="-1.6297">
        <ele>32.2</ele>
        <time>2015-08-04T18:18:19Z</time>
      </trkpt>
      <trkpt lat="47.15608" lon="-1.6295">
        <ele>32.6</ele>
        <time>2015-08-04T18:18:26Z</time>
      </trkpt>
      <trkpt lat="47.15626" lon="-1.62938">
        <ele>33</ele>
        <time>2015-08-04T18:18:36Z</time>
      </trkpt>
      <trkpt lat="47.15643" lon="-1.62925">
        <ele>33.3</ele>
        <time>2015-08-04T18:18:44Z</time>
      </trkpt>
      <trkpt lat="47.15661" lon="-1.6291">
        <ele>34.1</ele>
        <time>2015-08-04T18:18:52Z</time>
      </trkpt>
      <trkpt lat="47.15677" lon="-1.62895">
        <ele>35.2</ele>
        <time>2015-08-04T18:19:01Z</time>
      </trkpt>
      <trkpt lat="47.15695" lon="-1.62882">
        <ele>36.3</ele>
        <time>2015-08-04T18:19:08Z</time>
      </trkpt>
      <trkpt lat="47.1571" lon="-1.62868">
        <ele>36.8</ele>
        <time>2015-08-04T18:19:15Z</time>
      </trkpt>
      <trkpt lat="47.15719" lon="-1.62845">
        <ele>36.3</ele>
        <time>2015-08-04T18:19:21Z</time>
      </trkpt>
      <trkpt lat="47.15725" lon="-1.62816">
        <ele>32.4</ele>
        <time>2015-08-04T18:19:25Z</time>
      </trkpt>
      <trkpt lat="47.15728" lon="-1.62788">
        <ele>31.2</ele>
        <time>2015-08-04T18:19:32Z</time>
      </trkpt>
      <trkpt lat="47.15733" lon="-1.62761">
        <ele>29.3</ele>
        <time>2015-08-04T18:19:40Z</time>
      </trkpt>
      <trkpt lat="47.15742" lon="-1.62733">
        <ele>28.4</ele>
        <time>2015-08-04T18:19:48Z</time>
      </trkpt>
      <trkpt lat="47.15753" lon="-1.62712">
        <ele>26.1</ele>
        <time>2015-08-04T18:20:00Z</time>
      </trkpt>
      <trkpt lat="47.15771" lon="-1.62716">
        <ele>25.1</ele>
        <time>2015-08-04T18:20:08Z</time>
      </trkpt>
      <trkpt lat="47.15789" lon="-1.62722">
        <ele>25.4</ele>
        <time>2015-08-04T18:20:19Z</time>
      </trkpt>
      <trkpt lat="47.15809" lon="-1.62722">
        <ele>26.2</ele>
        <time>2015-08-04T18:20:28Z</time>
      </trkpt>
      <trkpt lat="47.15829" lon="-1.62717">
        <ele>26.7</ele>
        <time>2015-08-04T18:20:36Z</time>
      </trkpt>
      <trkpt lat="47.15847" lon="-1.62709">
        <ele>25.6</ele>
        <time>2015-08-04T18:20:42Z</time>
      </trkpt>
      <trkpt lat="47.15866" lon="-1.62708">
        <ele>24.1</ele>
        <time>2015-08-04T18:20:51Z</time>
      </trkpt>
      <trkpt lat="47.15887" lon="-1.62702">
        <ele>18.1</ele>
        <time>2015-08-04T18:20:57Z</time>
      </trkpt>
      <trkpt lat="47.15908" lon="-1.62696">
        <ele>11.8</ele>
        <time>2015-08-04T18:21:03Z</time>
      </trkpt>
      <trkpt lat="47.15928" lon="-1.62694">
        <ele>7.4</ele>
        <time>2015-08-04T18:21:10Z</time>
      </trkpt>
      <trkpt lat="47.15946" lon="-1.6269">
        <ele>7.5</ele>
        <time>2015-08-04T18:21:16Z</time>
      </trkpt>
      <trkpt lat="47.15966" lon="-1.62687">
        <ele>4.6</ele>
        <time>2015-08-04T18:21:23Z</time>
      </trkpt>
      <trkpt lat="47.15978" lon="-1.62664">
        <ele>5.7</ele>
        <time>2015-08-04T18:21:30Z</time>
      </trkpt>
      <trkpt lat="47.15983" lon="-1.62635">
        <ele>5.4</ele>
        <time>2015-08-04T18:21:37Z</time>
      </trkpt>
      <trkpt lat="47.15981" lon="-1.62604">
        <ele>5.6</ele>
        <time>2015-08-04T18:21:44Z</time>
      </trkpt>
      <trkpt lat="47.15985" lon="-1.62576">
        <ele>5.4</ele>
        <time>2015-08-04T18:21:51Z</time>
      </trkpt>
      <trkpt lat="47.15993" lon="-1.62552">
        <ele>6.4</ele>
        <time>2015-08-04T18:21:58Z</time>
      </trkpt>
      <trkpt lat="47.1601" lon="-1.62539">
        <ele>7.1</ele>
        <time>2015-08-04T18:22:07Z</time>
      </trkpt>
      <trkpt lat="47.1603" lon="-1.62538">
        <ele>7.8</ele>
        <time>2015-08-04T18:22:16Z</time>
      </trkpt>
      <trkpt lat="47.16048" lon="-1.62541">
        <ele>7.2</ele>
        <time>2015-08-04T18:22:23Z</time>
      </trkpt>
      <trkpt lat="47.16068" lon="-1.62541">
        <ele>9.8</ele>
        <time>2015-08-04T18:22:31Z</time>
      </trkpt>
      <trkpt lat="47.16088" lon="-1.62542">
        <ele>8.4</ele>
        <time>2015-08-04T18:22:38Z</time>
      </trkpt>
      <trkpt lat="47.16106" lon="-1.62543">
        <ele>8.5</ele>
        <time>2015-08-04T18:22:45Z</time>
      </trkpt>
      <trkpt lat="47.16126" lon="-1.62543">
        <ele>12.9</ele>
        <time>2015-08-04T18:22:55Z</time>
      </trkpt>
      <trkpt lat="47.16144" lon="-1.62539">
        <ele>25.6</ele>
        <time>2015-08-04T18:23:08Z</time>
      </trkpt>
      <trkpt lat="47.16164" lon="-1.62546">
        <ele>29.8</ele>
        <time>2015-08-04T18:23:17Z</time>
      </trkpt>
      <trkpt lat="47.16183" lon="-1.62553">
        <ele>32.8</ele>
        <time>2015-08-04T18:23:24Z</time>
      </trkpt>
      <trkpt lat="47.16201" lon="-1.62553">
        <ele>35.6</ele>
        <time>2015-08-04T18:23:30Z</time>
      </trkpt>
      <trkpt lat="47.1622" lon="-1.62559">
        <ele>36.4</ele>
        <time>2015-08-04T18:23:38Z</time>
      </trkpt>
      <trkpt lat="47.1624" lon="-1.62559">
        <ele>36.9</ele>
        <time>2015-08-04T18:23:45Z</time>
      </trkpt>
      <trkpt lat="47.16259" lon="-1.62561">
        <ele>38</ele>
        <time>2015-08-04T18:23:52Z</time>
      </trkpt>
      <trkpt lat="47.16279" lon="-1.62562">
        <ele>37.8</ele>
        <time>2015-08-04T18:23:59Z</time>
      </trkpt>
      <trkpt lat="47.163" lon="-1.62563">
        <ele>35.3</ele>
        <time>2015-08-04T18:24:06Z</time>
      </trkpt>
      <trkpt lat="47.16317" lon="-1.62574">
        <ele>34.8</ele>
        <time>2015-08-04T18:24:13Z</time>
      </trkpt>
      <trkpt lat="47.16335" lon="-1.62582">
        <ele>34.3</ele>
        <time>2015-08-04T18:24:19Z</time>
      </trkpt>
      <trkpt lat="47.16355" lon="-1.62586">
        <ele>33.6</ele>
        <time>2015-08-04T18:24:27Z</time>
      </trkpt>
      <trkpt lat="47.16373" lon="-1.62589">
        <ele>33.1</ele>
        <time>2015-08-04T18:24:34Z</time>
      </trkpt>
      <trkpt lat="47.16392" lon="-1.62583">
        <ele>32.1</ele>
        <time>2015-08-04T18:24:42Z</time>
      </trkpt>
      <trkpt lat="47.16409" lon="-1.6257">
        <ele>30.5</ele>
        <time>2015-08-04T18:24:48Z</time>
      </trkpt>
      <trkpt lat="47.16424" lon="-1.62554">
        <ele>29.4</ele>
        <time>2015-08-04T18:24:54Z</time>
      </trkpt>
      <trkpt lat="47.16441" lon="-1.62541">
        <ele>28.7</ele>
        <time>2015-08-04T18:25:02Z</time>
      </trkpt>
      <trkpt lat="47.1646" lon="-1.62548">
        <ele>29.2</ele>
        <time>2015-08-04T18:25:10Z</time>
      </trkpt>
      <trkpt lat="47.16478" lon="-1.62553">
        <ele>28.2</ele>
        <time>2015-08-04T18:25:17Z</time>
      </trkpt>
      <trkpt lat="47.16498" lon="-1.62559">
        <ele>26.1</ele>
        <time>2015-08-04T18:25:23Z</time>
      </trkpt>
      <trkpt lat="47.16516" lon="-1.62566">
        <ele>24.1</ele>
        <time>2015-08-04T18:25:29Z</time>
      </trkpt>
      <trkpt lat="47.16536" lon="-1.62568">
        <ele>23.3</ele>
        <time>2015-08-04T18:25:35Z</time>
      </trkpt>
      <trkpt lat="47.16552" lon="-1.62553">
        <ele>21.4</ele>
        <time>2015-08-04T18:25:41Z</time>
      </trkpt>
      <trkpt lat="47.16566" lon="-1.62534">
        <ele>20.4</ele>
        <time>2015-08-04T18:25:47Z</time>
      </trkpt>
      <trkpt lat="47.16577" lon="-1.62512">
        <ele>19.7</ele>
        <time>2015-08-04T18:25:53Z</time>
      </trkpt>
      <trkpt lat="47.16587" lon="-1.62487">
        <ele>19.3</ele>
        <time>2015-08-04T18:25:59Z</time>
      </trkpt>
      <trkpt lat="47.16596" lon="-1.62463">
        <ele>18.1</ele>
        <time>2015-08-04T18:26:05Z</time>
      </trkpt>
      <trkpt lat="47.16605" lon="-1.62438">
        <ele>16.8</ele>
        <time>2015-08-04T18:26:12Z</time>
      </trkpt>
      <trkpt lat="47.16617" lon="-1.62418">
        <ele>16.2</ele>
        <time>2015-08-04T18:26:19Z</time>
      </trkpt>
      <trkpt lat="47.16631" lon="-1.62397">
        <ele>16.3</ele>
        <time>2015-08-04T18:26:26Z</time>
      </trkpt>
      <trkpt lat="47.16644" lon="-1.62376">
        <ele>15.6</ele>
        <time>2015-08-04T18:26:34Z</time>
      </trkpt>
      <trkpt lat="47.16662" lon="-1.62367">
        <ele>15.7</ele>
        <time>2015-08-04T18:26:42Z</time>
      </trkpt>
      <trkpt lat="47.16684" lon="-1.62366">
        <ele>15.4</ele>
        <time>2015-08-04T18:26:49Z</time>
      </trkpt>
      <trkpt lat="47.16701" lon="-1.62376">
        <ele>16</ele>
        <time>2015-08-04T18:26:55Z</time>
      </trkpt>
      <trkpt lat="47.16713" lon="-1.62397">
        <ele>16.5</ele>
        <time>2015-08-04T18:27:03Z</time>
      </trkpt>
      <trkpt lat="47.16708" lon="-1.62424">
        <ele>16.4</ele>
        <time>2015-08-04T18:27:13Z</time>
      </trkpt>
      <trkpt lat="47.16708" lon="-1.62453">
        <ele>16.9</ele>
        <time>2015-08-04T18:27:21Z</time>
      </trkpt>
      <trkpt lat="47.16719" lon="-1.62476">
        <ele>15.7</ele>
        <time>2015-08-04T18:27:31Z</time>
      </trkpt>
      <trkpt lat="47.16716" lon="-1.62504">
        <ele>14.7</ele>
        <time>2015-08-04T18:27:39Z</time>
      </trkpt>
      <trkpt lat="47.16712" lon="-1.62532">
        <ele>15.4</ele>
        <time>2015-08-04T18:27:46Z</time>
      </trkpt>
      <trkpt lat="47.16708" lon="-1.6256">
        <ele>17.1</ele>
        <time>2015-08-04T18:27:54Z</time>
      </trkpt>
      <trkpt lat="47.16708" lon="-1.62586">
        <ele>17.5</ele>
        <time>2015-08-04T18:28:00Z</time>
      </trkpt>
      <trkpt lat="47.16709" lon="-1.62615">
        <ele>18.9</ele>
        <time>2015-08-04T18:28:07Z</time>
      </trkpt>
      <trkpt lat="47.16714" lon="-1.62645">
        <ele>19.5</ele>
        <time>2015-08-04T18:28:14Z</time>
      </trkpt>
      <trkpt lat="47.16719" lon="-1.62673">
        <ele>20.3</ele>
        <time>2015-08-04T18:28:22Z</time>
      </trkpt>
      <trkpt lat="47.16736" lon="-1.62679">
        <ele>20.9</ele>
        <time>2015-08-04T18:28:30Z</time>
      </trkpt>
      <trkpt lat="47.16755" lon="-1.62679">
        <ele>21.6</ele>
        <time>2015-08-04T18:28:37Z</time>
      </trkpt>
      <trkpt lat="47.16775" lon="-1.62676">
        <ele>22.1</ele>
        <time>2015-08-04T18:28:44Z</time>
      </trkpt>
    </trkseg>
  </trk>
</gpx>